Aviation Digital Data Service (ADDS)

Output produced by METARs form (1338 UTC 26 May 2018)
found at http://www.aviationweather.gov/adds/metars/
 
EKYT 261320Z AUTO 09004KT 030V150 9999NDV FEW065/// 25/08 Q1026
TAF EKYT 261109Z 2612/2712 VRB05KT 9999 FEW200 
     BECMG 2704/2707 08010KT
       
EKAH 261320Z AUTO 07010KT 9999NDV NCD 25/10 Q1026
TAF EKAH 261101Z 2612/2712 06010KT CAVOK 
     PROB40 2709/2712 08015G25KT SHRA BKN030CB
       
EKBI 261320Z AUTO 06011KT 020V110 9999NDV NCD 25/08 Q1025
TAF EKBI 261101Z 2612/2712 07010KT CAVOK 
     PROB40 2710/2712 08015G25KT SHRA BKN030CB
       
EKRN 261320Z AUTO 04012KT 9999NDV NCD 20/13 Q1024
EKEB 261320Z AUTO 08010KT 030V110 9999NDV FEW065/// 25/11 Q1025
EKKA 261320Z AUTO 06009KT 030V130 9999NDV NCD 27/10 Q1025
TAF EKKA 261109Z 2612/2712 08010KT 9999 FEW050 
     TEMPO 2612/2616 08012G22KT 
     PROB40 2702/2705 3000 MIFG BR 
     TEMPO 2710/2712 7000 -SHRA SCT030CB
       
EKCH 261320Z 35010KT 9999 SCT030CB BKN050 20/12 Q1025 TEMPO 3000 TSRA
TAF EKCH 261110Z 2612/2712 04010KT CAVOK 
     TEMPO 2612/2619 30010KT 3000 TSRA BKN040CB 
     TEMPO 2619/2621 SCT050CB 
     TEMPO 2703/2712 4000 SHRA BKN012 SCT030CB
       
EKVD 261250Z 07014KT 040V100 CAVOK 23/10 Q1025
EKAH 261320Z AUTO 07010KT 9999NDV NCD 25/10 Q1026
TAF EKAH 261101Z 2612/2712 06010KT CAVOK 
     PROB40 2709/2712 08015G25KT SHRA BKN030CB
       
EKBI 261320Z AUTO 06011KT 020V110 9999NDV NCD 25/08 Q1025
TAF EKBI 261101Z 2612/2712 07010KT CAVOK 
     PROB40 2710/2712 08015G25KT SHRA BKN030CB
       
EKCH 261320Z 35010KT 9999 SCT030CB BKN050 20/12 Q1025 TEMPO 3000 TSRA
TAF EKCH 261110Z 2612/2712 04010KT CAVOK 
     TEMPO 2612/2619 30010KT 3000 TSRA BKN040CB 
     TEMPO 2619/2621 SCT050CB 
     TEMPO 2703/2712 4000 SHRA BKN012 SCT030CB
       
EKEB 261320Z AUTO 08010KT 030V110 9999NDV FEW065/// 25/11 Q1025
EKKA 261320Z AUTO 06009KT 030V130 9999NDV NCD 27/10 Q1025
TAF EKKA 261109Z 2612/2712 08010KT 9999 FEW050 
     TEMPO 2612/2616 08012G22KT 
     PROB40 2702/2705 3000 MIFG BR 
     TEMPO 2710/2712 7000 -SHRA SCT030CB
       
EKOD 261250Z 03014KT 350V060 CAVOK 22/09 Q1025
EKRK 261320Z 04012G23KT 010V090 3000 -TSRA FEW025 SCT030CB 16/14 Q1025
EKRN 261320Z AUTO 04012KT 9999NDV NCD 20/13 Q1024
EKSB 261320Z 04012KT CAVOK 23/14 Q1024
EKSP 261320Z 05012KT 010V080 CAVOK 25/11 Q1025 RMK FEW050
TAF EKSP 261109Z 2612/2712 06012KT 9999 FEW050 
     TEMPO 2612/2616 06012G25KT 
     PROB40 2702/2705 3000 MIFG BR 
     TEMPO 2710/2712 7000 -SHRA SCT030CB
       
EKVD 261250Z 07014KT 040V100 CAVOK 23/10 Q1025
EKVG 261320Z AUTO 15012KT 9999NDV BKN013/// 10/06 Q1034 RMK BKN013/// WIND 850FT 14013KT
EKYT 261320Z AUTO 09004KT 030V150 9999NDV FEW065/// 25/08 Q1026
TAF EKYT 261109Z 2612/2712 VRB05KT 9999 FEW200 
     BECMG 2704/2707 08010KT
       
EKOD 261250Z 03014KT 350V060 CAVOK 22/09 Q1025
EKRK 261320Z 04012G23KT 010V090 3000 -TSRA FEW025 SCT030CB 16/14 Q1025
EKSP 261320Z 05012KT 010V080 CAVOK 25/11 Q1025 RMK FEW050
TAF EKSP 261109Z 2612/2712 06012KT 9999 FEW050 
     TEMPO 2612/2616 06012G25KT 
     PROB40 2702/2705 3000 MIFG BR 
     TEMPO 2710/2712 7000 -SHRA SCT030CB
       
EKSB 261320Z 04012KT CAVOK 23/14 Q1024